createdAt,value
2022-11-25T00:01:13.851Z,3.00
2022-11-25T00:03:47.386Z,3.37
2022-11-25T00:06:21.520Z,3.97
2022-11-25T00:08:55.651Z,3.77
2022-11-25T00:11:29.027Z,3.33
2022-11-25T00:14:02.067Z,3.20
2022-11-25T00:16:35.043Z,2.90
2022-11-25T00:19:08.060Z,3.40
2022-11-25T00:21:41.027Z,3.40
2022-11-25T00:24:15.234Z,2.93
2022-11-25T00:26:48.216Z,3.10
2022-11-25T00:29:21.211Z,2.80
2022-11-25T00:31:54.176Z,3.10
2022-11-25T00:34:27.321Z,3.10
2022-11-25T00:37:00.257Z,3.00
2022-11-25T00:39:33.228Z,3.10
2022-11-25T00:42:24.859Z,3.33
2022-11-25T00:44:58.980Z,2.80
2022-11-25T00:47:31.880Z,3.00
2022-11-25T00:50:05.124Z,3.20
2022-11-25T00:52:38.205Z,3.47
2022-11-25T00:55:11.260Z,3.00
2022-11-25T00:57:44.162Z,3.47
2022-11-25T01:00:18.048Z,3.10
2022-11-25T01:02:50.951Z,3.00
2022-11-25T01:05:23.919Z,3.67
2022-11-25T01:07:56.860Z,3.30
2022-11-25T01:10:29.774Z,3.50
2022-11-25T01:13:05.565Z,3.53
2022-11-25T01:15:38.539Z,5.20
2022-11-25T01:18:11.528Z,4.20
2022-11-25T01:20:44.490Z,3.80
2022-11-25T01:23:17.428Z,3.77
2022-11-25T01:25:50.381Z,3.70
2022-11-25T01:28:23.770Z,4.10
2022-11-25T01:31:02.668Z,3.83
2022-11-25T01:33:36.023Z,3.70
2022-11-25T01:36:11.075Z,3.30
2022-11-25T01:38:44.879Z,3.50
2022-11-25T01:41:17.884Z,4.03
2022-11-25T01:44:04.723Z,3.43
2022-11-25T01:46:56.099Z,3.63
2022-11-25T01:49:30.286Z,2.90
2022-11-25T01:52:23.438Z,3.27
2022-11-25T01:54:56.348Z,3.10
2022-11-25T01:57:32.983Z,3.63
2022-11-25T02:00:06.793Z,3.20
2022-11-25T02:02:51.052Z,2.90
2022-11-25T02:05:33.550Z,3.30
2022-11-25T02:08:08.551Z,3.37
2022-11-25T02:10:43.730Z,3.80
2022-11-25T02:13:16.636Z,3.33
2022-11-25T02:15:49.651Z,3.37
2022-11-25T02:18:22.676Z,3.73
2022-11-25T02:20:55.689Z,3.23
2022-11-25T02:23:34.184Z,4.03
2022-11-25T02:26:07.381Z,3.70
2022-11-25T02:28:40.529Z,3.70
2022-11-25T02:31:13.597Z,3.50
2022-11-25T02:33:46.568Z,3.03
2022-11-25T02:36:21.041Z,3.03
2022-11-25T02:38:53.991Z,3.50
2022-11-25T02:41:32.877Z,3.13
2022-11-25T02:44:09.317Z,3.03
2022-11-25T02:46:42.395Z,3.33
2022-11-25T02:49:15.545Z,3.30
2022-11-25T02:51:49.711Z,4.47
2022-11-25T02:54:23.718Z,3.60
2022-11-25T02:56:56.696Z,3.87
2022-11-25T02:59:29.659Z,3.30
2022-11-25T03:02:02.918Z,3.40
2022-11-25T03:04:36.383Z,3.80
2022-11-25T03:07:09.505Z,3.40
2022-11-25T03:09:43.498Z,3.27
2022-11-25T03:12:21.176Z,3.10
2022-11-25T03:14:59.159Z,3.37
2022-11-25T03:17:32.972Z,3.67
2022-11-25T03:20:06.514Z,3.40
2022-11-25T03:22:40.017Z,3.57
2022-11-25T03:25:13.585Z,3.57
2022-11-25T03:27:46.862Z,3.70
2022-11-25T03:30:24.133Z,3.90
2022-11-25T03:33:00.083Z,3.47
2022-11-25T03:35:33.576Z,2.93
2022-11-25T03:38:06.556Z,3.10
2022-11-25T03:40:42.537Z,3.03
2022-11-25T03:43:16.056Z,2.90
2022-11-25T03:45:50.198Z,2.97
2022-11-25T03:48:23.616Z,2.93
2022-11-25T03:50:56.664Z,2.83
2022-11-25T03:53:31.671Z,3.33
2022-11-25T03:56:07.132Z,3.23
2022-11-25T03:58:41.055Z,2.50
2022-11-25T04:01:15.964Z,2.33
2022-11-25T04:03:50.926Z,2.60
2022-11-25T04:06:24.355Z,2.20
2022-11-25T04:09:00.159Z,2.47
2022-11-25T04:11:51.768Z,2.07
2022-11-25T04:14:24.843Z,1.90
2022-11-25T04:16:59.391Z,1.30
2022-11-25T04:19:32.374Z,1.50
2022-11-25T04:22:05.394Z,1.33
2022-11-25T04:24:41.366Z,1.30
2022-11-25T04:27:15.159Z,1.13
2022-11-25T04:29:48.471Z,1.40
2022-11-25T04:32:21.926Z,0.80
2022-11-25T04:34:55.398Z,1.10
2022-11-25T04:37:28.660Z,1.20
2022-11-25T04:40:01.743Z,1.13
2022-11-25T04:42:36.514Z,1.10
2022-11-25T04:45:33.367Z,1.10
2022-11-25T04:48:06.366Z,1.07
2022-11-25T04:50:40.112Z,1.10
2022-11-25T04:53:17.536Z,1.20
2022-11-25T04:55:50.408Z,1.10
2022-11-25T04:58:58.698Z,1.40
2022-11-25T05:01:31.874Z,1.03
2022-11-25T05:04:23.448Z,0.80
2022-11-25T05:06:56.389Z,1.00
2022-11-25T05:09:30.751Z,1.00
2022-11-25T05:12:21.611Z,1.23
2022-11-25T05:14:54.853Z,1.10
2022-11-25T05:17:30.433Z,1.23
2022-11-25T05:20:04.743Z,1.10
2022-11-25T05:22:39.808Z,1.27
2022-11-25T05:25:16.533Z,1.10
2022-11-25T05:28:02.608Z,0.90
2022-11-25T05:30:35.567Z,1.00
2022-11-25T05:33:08.476Z,0.97
2022-11-25T05:35:41.421Z,1.30
2022-11-25T05:38:14.611Z,1.40
2022-11-25T05:40:47.852Z,1.20
2022-11-25T05:43:23.020Z,1.10
2022-11-25T05:45:56.856Z,0.97
2022-11-25T05:48:30.488Z,1.00
2022-11-25T05:51:04.396Z,1.30
2022-11-25T05:53:38.023Z,1.20
2022-11-25T05:56:11.172Z,1.73
2022-11-25T05:59:13.037Z,1.53
2022-11-25T06:01:53.687Z,1.50
2022-11-25T06:04:26.912Z,1.60
2022-11-25T06:06:59.830Z,2.20
2022-11-25T06:09:32.851Z,1.73
2022-11-25T06:12:06.447Z,2.30
2022-11-25T06:14:43.372Z,2.57
2022-11-25T06:17:16.337Z,2.40
2022-11-25T06:19:59.625Z,2.20
2022-11-25T06:22:32.595Z,2.00
2022-11-25T06:25:05.779Z,2.30
2022-11-25T06:28:10.675Z,2.47
2022-11-25T06:30:34.512Z,2.20
2022-11-25T06:33:19.609Z,2.00
2022-11-25T06:35:54.331Z,1.80
2022-11-25T06:38:27.309Z,2.00
2022-11-25T06:41:04.320Z,1.93
2022-11-25T06:43:37.326Z,1.93
2022-11-25T06:46:11.499Z,1.98
2022-11-25T06:48:51.258Z,1.70
2022-11-25T06:51:27.158Z,1.60
2022-11-25T06:54:03.566Z,1.00
2022-11-25T06:56:36.671Z,1.27
2022-11-25T06:59:09.731Z,1.43
2022-11-25T07:01:42.690Z,1.27
2022-11-25T07:04:15.704Z,1.33
2022-11-25T07:06:49.893Z,1.50
2022-11-25T07:09:22.878Z,1.20
2022-11-25T07:11:55.854Z,1.10
2022-11-25T07:14:28.783Z,1.10
2022-11-25T07:17:01.705Z,1.30
2022-11-25T07:19:35.680Z,1.27
2022-11-25T07:22:14.981Z,1.20
2022-11-25T07:24:47.901Z,1.00
2022-11-25T07:27:20.837Z,1.30
2022-11-25T07:30:29.186Z,1.30
2022-11-25T07:32:46.678Z,1.13
2022-11-25T07:35:19.560Z,1.50
2022-11-25T07:37:53.052Z,1.10
2022-11-25T07:40:25.948Z,1.67
2022-11-25T07:42:58.869Z,1.03
2022-11-25T07:45:33.792Z,1.10
2022-11-25T07:48:13.524Z,1.17
2022-11-25T07:50:47.292Z,1.10
2022-11-25T07:53:20.204Z,1.10
2022-11-25T07:55:53.224Z,1.00
2022-11-25T07:58:26.194Z,1.43
2022-11-25T08:01:02.674Z,1.20
2022-11-25T08:03:36.419Z,1.17
2022-11-25T08:06:10.891Z,1.33
2022-11-25T08:08:44.266Z,1.43
2022-11-25T08:11:18.474Z,1.10
2022-11-25T08:13:51.737Z,1.20
2022-11-25T08:16:27.031Z,1.07
2022-11-25T08:19:00.766Z,1.37
2022-11-25T08:21:33.914Z,1.40
2022-11-25T08:24:06.909Z,1.50
2022-11-25T08:26:40.187Z,1.40
2022-11-25T08:29:14.280Z,1.57
2022-11-25T08:31:47.304Z,1.00
2022-11-25T08:34:21.938Z,1.23
2022-11-25T08:36:56.911Z,1.30
2022-11-25T08:42:23.986Z,1.00
2022-11-25T08:44:58.143Z,1.53
2022-11-25T08:47:31.141Z,1.37
2022-11-25T08:50:06.225Z,1.40
2022-11-25T08:52:39.205Z,1.10
2022-11-25T08:55:12.099Z,1.57
2022-11-25T08:57:45.124Z,1.20
2022-11-25T09:00:18.203Z,1.10
2022-11-25T09:02:51.180Z,1.30
2022-11-25T09:05:24.092Z,1.20
2022-11-25T09:07:57.159Z,1.10
2022-11-25T09:10:30.138Z,1.13
2022-11-25T09:13:03.105Z,1.27
2022-11-25T09:15:35.988Z,1.50
2022-11-25T09:18:09.872Z,1.33
2022-11-25T09:20:43.019Z,1.33
2022-11-25T09:23:15.906Z,1.27
2022-11-25T09:25:53.330Z,1.50
2022-11-25T09:28:26.983Z,1.10
2022-11-25T09:31:00.191Z,1.80
2022-11-25T09:33:33.104Z,1.40
2022-11-25T09:36:06.238Z,1.80
2022-11-25T09:38:43.168Z,1.73
2022-11-25T09:41:53.724Z,1.53
2022-11-25T09:44:51.284Z,1.50
2022-11-25T09:47:47.586Z,1.83
2022-11-25T09:50:24.977Z,1.60
2022-11-25T09:53:05.631Z,1.37
2022-11-25T09:55:43.076Z,1.33
2022-11-25T09:58:28.317Z,1.57
2022-11-25T10:01:05.362Z,1.67
2022-11-25T10:03:38.322Z,1.50
2022-11-25T10:06:17.382Z,1.27
2022-11-25T10:08:51.663Z,2.00
2022-11-25T10:11:32.016Z,1.70
2022-11-25T10:14:11.520Z,1.60
2022-11-25T10:16:51.798Z,1.50
2022-11-25T10:19:37.809Z,1.90
2022-11-25T10:22:17.205Z,1.30
2022-11-25T10:24:50.727Z,1.40
2022-11-25T10:27:37.398Z,1.33
2022-11-25T10:30:21.459Z,1.40
2022-11-25T10:33:12.931Z,1.30
2022-11-25T10:35:48.984Z,1.10
2022-11-25T10:38:28.964Z,1.40
2022-11-25T10:41:03.381Z,1.40
2022-11-25T10:43:40.665Z,1.53
2022-11-25T10:46:56.657Z,1.50
2022-11-25T10:49:30.923Z,1.60
2022-11-25T10:52:10.154Z,2.00
2022-11-25T10:54:43.108Z,1.47
2022-11-25T10:57:20.098Z,1.33
2022-11-25T10:59:57.953Z,1.40
2022-11-25T11:02:32.354Z,1.20
2022-11-25T11:05:11.253Z,1.40
2022-11-25T11:07:45.313Z,1.60
2022-11-25T11:10:20.148Z,1.60
2022-11-25T11:12:56.920Z,1.63
2022-11-25T11:15:42.156Z,1.23
2022-11-25T11:18:26.432Z,1.20
2022-11-25T11:21:00.310Z,1.53
2022-11-25T11:23:47.153Z,1.60
2022-11-25T11:26:33.701Z,1.20
2022-11-25T11:29:14.432Z,1.40
2022-11-25T11:31:49.600Z,1.40
2022-11-25T11:34:28.679Z,1.50
2022-11-25T11:37:20.296Z,1.30
2022-11-25T11:40:00.671Z,1.40
2022-11-25T11:42:53.825Z,1.43
2022-11-25T11:45:29.811Z,1.33
2022-11-25T11:48:02.711Z,1.10
2022-11-25T11:50:40.213Z,1.40
2022-11-25T11:53:15.909Z,1.80
2022-11-25T11:56:05.920Z,1.17
2022-11-25T11:58:55.094Z,1.40
2022-11-25T12:01:37.371Z,1.47
2022-11-25T12:04:16.128Z,1.37
2022-11-25T12:06:58.862Z,1.30
2022-11-25T12:09:33.092Z,1.50
2022-11-25T12:12:07.613Z,1.70
2022-11-25T12:14:44.653Z,1.23
2022-11-25T12:17:27.726Z,1.40
2022-11-25T12:20:14.759Z,1.50
2022-11-25T12:23:23.383Z,1.43
2022-11-25T12:25:59.278Z,1.77
2022-11-25T12:28:38.685Z,1.50
2022-11-25T12:31:23.201Z,1.40
2022-11-25T12:34:14.613Z,1.50
2022-11-25T12:36:48.012Z,1.20
2022-11-25T12:39:20.897Z,1.10
2022-11-25T12:41:56.902Z,1.53
2022-11-25T12:44:36.242Z,1.30
2022-11-25T12:47:11.080Z,1.37
2022-11-25T12:49:48.993Z,1.40
2022-11-25T12:52:41.120Z,1.73
2022-11-25T12:55:28.916Z,1.00
2022-11-25T12:58:20.654Z,1.10
2022-11-25T13:01:03.450Z,1.10
2022-11-25T13:03:55.016Z,1.30
2022-11-25T13:07:00.255Z,1.13
2022-11-25T13:09:39.202Z,1.07
2022-11-25T13:12:27.870Z,1.40
2022-11-25T13:15:16.783Z,1.10
2022-11-25T13:17:51.012Z,1.10
2022-11-25T13:20:30.128Z,1.30
2022-11-25T13:23:10.122Z,1.47
2022-11-25T13:25:44.164Z,1.47
2022-11-25T13:28:29.331Z,1.50
2022-11-25T13:31:28.724Z,1.43
2022-11-25T13:34:01.711Z,1.50
2022-11-25T13:36:45.609Z,1.40
2022-11-25T13:39:19.663Z,1.40
2022-11-25T13:42:22.144Z,1.77
2022-11-25T13:44:56.510Z,1.50
2022-11-25T13:47:40.190Z,1.40
2022-11-25T13:50:21.848Z,1.70
2022-11-25T13:53:07.319Z,1.47
2022-11-25T13:55:42.035Z,1.33
2022-11-25T13:58:20.225Z,1.60
2022-11-25T14:00:56.113Z,1.83
2022-11-25T14:03:29.038Z,1.47
2022-11-25T14:06:27.368Z,1.80
2022-11-25T14:09:00.247Z,1.20
2022-11-25T14:11:36.928Z,1.23
2022-11-25T14:14:20.860Z,1.00
2022-11-25T14:16:53.817Z,1.03
2022-11-25T14:19:51.133Z,1.20
2022-11-25T14:22:43.859Z,1.10
2022-11-25T14:25:26.512Z,0.90
2022-11-25T14:28:09.475Z,1.00
2022-11-25T14:30:53.959Z,1.23
2022-11-25T14:33:33.379Z,1.00
2022-11-25T14:36:09.811Z,1.20
2022-11-25T14:38:59.637Z,1.20
2022-11-25T14:41:42.208Z,1.20
2022-11-25T14:44:17.665Z,1.33
2022-11-25T14:46:58.201Z,1.43
2022-11-25T14:49:49.135Z,1.53
2022-11-25T14:52:29.194Z,1.33
2022-11-25T14:55:02.737Z,1.50
2022-11-25T14:57:37.550Z,1.40
2022-11-25T15:00:18.236Z,1.50
2022-11-25T15:02:53.932Z,1.77
2022-11-25T15:05:31.661Z,1.40
2022-11-25T15:08:11.864Z,1.50
2022-11-25T15:10:50.232Z,1.03
2022-11-25T15:13:30.417Z,1.30
2022-11-25T15:16:06.613Z,1.60
2022-11-25T15:18:48.599Z,1.97
2022-11-25T15:21:23.721Z,1.33
2022-11-25T15:23:56.836Z,1.60
2022-11-25T15:26:31.028Z,1.40
2022-11-25T15:29:13.232Z,1.40
2022-11-25T15:31:47.212Z,1.87
2022-11-25T15:34:20.308Z,1.47
2022-11-25T15:36:54.626Z,1.40
2022-11-25T15:39:27.900Z,1.77
2022-11-25T15:42:14.863Z,1.27
2022-11-25T15:44:47.725Z,1.90
2022-11-25T15:47:33.355Z,1.50
2022-11-25T15:50:21.093Z,1.93
2022-11-25T15:52:55.859Z,2.03
2022-11-25T15:55:36.419Z,1.83
2022-11-25T15:58:16.268Z,1.57
2022-11-25T16:01:01.437Z,1.37
2022-11-25T16:03:35.314Z,1.40
2022-11-25T16:06:21.936Z,1.50
2022-11-25T16:08:54.855Z,1.70
2022-11-25T16:11:33.940Z,1.60
2022-11-25T16:14:26.973Z,1.90
2022-11-25T16:17:05.433Z,1.47
2022-11-25T16:19:43.196Z,1.90
2022-11-25T16:22:17.789Z,1.77
2022-11-25T16:25:01.801Z,1.73
2022-11-25T16:27:37.645Z,2.10
2022-11-25T16:30:20.601Z,1.37
2022-11-25T16:32:53.493Z,1.70
2022-11-25T16:35:26.370Z,1.53
2022-11-25T16:37:59.281Z,1.13
2022-11-25T16:40:32.223Z,1.30
2022-11-25T16:43:06.854Z,1.57
2022-11-25T16:45:40.390Z,1.30
2022-11-25T16:48:17.196Z,1.67
2022-11-25T16:50:50.393Z,1.30
2022-11-25T16:53:23.410Z,2.17
2022-11-25T16:55:56.780Z,2.23
2022-11-25T16:58:29.693Z,1.80
2022-11-25T17:01:02.603Z,2.07
2022-11-25T17:03:36.021Z,2.00
2022-11-25T17:06:22.168Z,1.90
2022-11-25T17:08:55.532Z,1.90
2022-11-25T17:11:50.555Z,1.97
2022-11-25T17:14:29.586Z,1.97
2022-11-25T17:17:05.536Z,1.90
2022-11-25T17:19:38.634Z,1.30
2022-11-25T17:22:17.868Z,1.90
2022-11-25T17:24:50.889Z,1.40
2022-11-25T17:27:31.833Z,1.87
2022-11-25T17:30:06.419Z,2.43
2022-11-25T17:32:39.378Z,2.92
2022-11-25T17:35:17.629Z,2.73
2022-11-25T17:37:50.537Z,4.63
2022-11-25T17:40:23.419Z,6.23
2022-11-25T17:42:56.549Z,6.17
2022-11-25T17:45:29.591Z,5.73
2022-11-25T17:48:02.567Z,5.53
2022-11-25T17:50:36.073Z,4.40
2022-11-25T17:53:09.454Z,3.63
2022-11-25T17:55:42.663Z,2.87
2022-11-25T17:58:16.072Z,2.47
2022-11-25T18:00:49.074Z,2.97
2022-11-25T18:03:22.019Z,2.40
2022-11-25T18:05:54.960Z,2.13
2022-11-25T18:08:27.874Z,2.20
2022-11-25T18:11:01.696Z,2.50
2022-11-25T18:13:39.429Z,1.90
2022-11-25T18:16:12.521Z,2.30
2022-11-25T18:18:45.565Z,2.20
2022-11-25T18:21:18.516Z,2.73
2022-11-25T18:23:51.379Z,2.90
2022-11-25T18:26:24.343Z,3.67
2022-11-25T18:28:57.221Z,2.03
2022-11-25T18:31:30.208Z,2.30
2022-11-25T18:34:03.120Z,1.70
2022-11-25T18:36:36.066Z,1.93
2022-11-25T18:39:09.007Z,1.90
2022-11-25T18:41:42.463Z,2.00
2022-11-25T18:44:25.836Z,1.90
2022-11-25T18:46:59.394Z,1.60
2022-11-25T18:49:32.362Z,2.13
2022-11-25T18:52:05.481Z,2.80
2022-11-25T18:54:38.779Z,1.80
2022-11-25T18:57:14.756Z,2.50
2022-11-25T18:59:52.743Z,1.90
2022-11-25T19:02:40.811Z,2.30
2022-11-25T19:05:18.427Z,2.10
2022-11-25T19:07:55.803Z,1.97
2022-11-25T19:10:31.088Z,1.93
2022-11-25T19:13:06.463Z,2.20
2022-11-25T19:15:39.522Z,1.93
2022-11-25T19:18:14.321Z,2.63
2022-11-25T19:20:47.285Z,2.50
2022-11-25T19:23:30.781Z,2.37
2022-11-25T19:26:07.866Z,2.33
2022-11-25T19:28:41.114Z,3.73
2022-11-25T19:31:14.133Z,3.70
2022-11-25T19:33:48.567Z,3.20
2022-11-25T19:36:26.336Z,3.67
2022-11-25T19:38:59.261Z,2.93
2022-11-25T19:41:32.148Z,3.00
2022-11-25T19:44:05.100Z,2.70
2022-11-25T19:47:07.120Z,3.10
2022-11-25T19:49:34.101Z,2.70
2022-11-25T19:52:13.871Z,2.70
2022-11-25T19:54:46.793Z,2.57
2022-11-25T19:57:20.943Z,3.00
2022-11-25T19:59:53.943Z,2.47
2022-11-25T20:02:27.096Z,3.03
2022-11-25T20:05:00.119Z,2.47
2022-11-25T20:07:33.321Z,2.53
2022-11-25T20:10:16.936Z,2.65
2022-11-25T20:12:50.218Z,2.27
2022-11-25T20:15:23.353Z,2.53
2022-11-25T20:17:58.641Z,2.03
2022-11-25T20:20:33.340Z,2.53
2022-11-25T20:23:16.773Z,2.67
2022-11-25T20:25:49.898Z,2.40
2022-11-25T20:28:24.683Z,2.33
2022-11-25T20:30:59.043Z,2.30
2022-11-25T20:33:31.985Z,2.80
2022-11-25T20:36:08.383Z,2.50
2022-11-25T20:38:44.801Z,3.23
2022-11-25T20:41:20.665Z,2.67
2022-11-25T20:43:58.303Z,2.97
2022-11-25T20:46:31.264Z,2.63
2022-11-25T20:49:16.623Z,2.70
2022-11-25T20:51:49.955Z,2.50
2022-11-25T20:54:25.995Z,2.70
2022-11-25T20:57:00.547Z,2.30
2022-11-25T20:59:34.308Z,2.57
2022-11-25T21:02:07.260Z,2.13
2022-11-25T21:04:40.332Z,2.47
2022-11-25T21:07:17.891Z,2.27
2022-11-25T21:09:51.238Z,2.33
2022-11-25T21:12:24.118Z,2.43
2022-11-25T21:14:57.111Z,2.03
2022-11-25T21:17:30.057Z,1.77
2022-11-25T21:20:03.046Z,2.10
2022-11-25T21:22:41.054Z,2.10
2022-11-25T21:25:15.507Z,2.20
2022-11-25T21:27:48.714Z,2.45
2022-11-25T21:30:22.772Z,2.80
2022-11-25T21:32:56.627Z,2.83
2022-11-25T21:35:33.982Z,4.17
2022-11-25T21:38:09.755Z,3.90
2022-11-25T21:40:45.068Z,4.37
2022-11-25T21:43:21.875Z,4.07
2022-11-25T21:46:02.352Z,2.67
2022-11-25T21:48:35.671Z,2.43
2022-11-25T21:51:10.488Z,2.50
2022-11-25T21:53:43.459Z,2.50
2022-11-25T21:56:25.452Z,2.23
2022-11-25T21:58:59.222Z,3.00
2022-11-25T22:01:32.463Z,2.80
2022-11-25T22:04:05.512Z,3.00
2022-11-25T22:06:38.442Z,2.87
2022-11-25T22:09:11.613Z,3.40
2022-11-25T22:11:45.864Z,2.93
2022-11-25T22:14:28.977Z,2.83
2022-11-25T22:17:02.606Z,3.00
2022-11-25T22:19:35.532Z,3.40
2022-11-25T22:22:19.196Z,2.97
2022-11-25T22:24:52.167Z,3.17
2022-11-25T22:27:28.135Z,3.57
2022-11-25T22:30:01.157Z,3.23
2022-11-25T22:32:34.045Z,2.33
2022-11-25T22:35:13.952Z,1.80
2022-11-25T22:37:51.994Z,1.90
2022-11-25T22:40:27.961Z,1.90
2022-11-25T22:43:01.273Z,1.73
2022-11-25T22:45:35.027Z,2.27
2022-11-25T22:48:07.964Z,2.38
2022-11-25T22:50:40.872Z,1.70
2022-11-25T22:53:15.128Z,2.27
2022-11-25T22:55:48.102Z,1.80
2022-11-25T22:58:20.974Z,2.27
2022-11-25T23:00:55.273Z,1.97
2022-11-25T23:03:29.493Z,2.20
2022-11-25T23:06:03.223Z,2.40
2022-11-25T23:08:36.237Z,2.60
2022-11-25T23:11:15.247Z,2.70
2022-11-25T23:13:51.067Z,2.37
2022-11-25T23:16:24.182Z,2.83
2022-11-25T23:18:57.150Z,2.50
2022-11-25T23:21:30.127Z,3.23
2022-11-25T23:24:03.024Z,3.63
2022-11-25T23:26:35.884Z,3.23
2022-11-25T23:29:08.855Z,3.23
2022-11-25T23:31:41.955Z,3.83
2022-11-25T23:34:15.098Z,3.10
2022-11-25T23:36:49.123Z,3.63
2022-11-25T23:39:23.204Z,2.93
2022-11-25T23:41:56.145Z,3.20
2022-11-25T23:44:32.066Z,3.17
2022-11-25T23:47:06.023Z,3.07
2022-11-25T23:49:46.405Z,2.37
2022-11-25T23:52:25.143Z,2.53
2022-11-25T23:54:58.377Z,2.70
2022-11-25T23:57:32.706Z,2.80
